Time;durP1;ratioP1;P1;durP2;ratioP2;P2;SDS_P1;SDS_P2;PMS_P1;PMS_P2;Temp;Humidity;BMP_temperature;BMP_pressure;BME280_temperature;BME280_humidity;BME280_pressure;Samples;Min_cycle;Max_cycle;Signal;HPM_P1;HPM_P2
2022/11/26 16:32:33;;;;;;;104.67;50.80;;;6.80;99.90;;;;;;5073975;28;20523;-77
2022/11/26 16:35:07;;;;;;;71.07;38.80;;;6.70;99.90;;;;;;5073538;28;20177;-77
2022/11/26 16:37:44;;;;;;;38.85;26.33;;;6.70;99.90;;;;;;5076318;28;20225;-77
2022/11/26 16:40:15;;;;;;;34.70;23.00;;;6.70;99.90;;;;;;5075393;28;20223;-77
2022/11/26 16:42:42;;;;;;;32.13;24.20;;;6.70;99.90;;;;;;5073123;28;20226;-78
2022/11/26 16:45:10;;;;;;;31.65;22.75;;;6.70;99.90;;;;;;5077405;28;20182;-77
2022/11/26 16:47:42;;;;;;;26.45;19.55;;;6.70;99.90;;;;;;5074125;28;20201;-77
2022/11/26 16:53:30;;;;;;;27.98;18.48;;;6.80;99.90;;;;;;5070782;28;20228;-77
2022/11/26 16:55:56;;;;;;;28.35;19.48;;;6.80;99.90;;;;;;5071195;28;20174;-77
2022/11/26 16:58:38;;;;;;;27.20;18.23;;;6.80;99.90;;;;;;5069569;28;20323;-77
2022/11/26 17:01:04;;;;;;;27.02;20.42;;;6.80;99.90;;;;;;5070239;28;20200;-76
2022/11/26 17:03:31;;;;;;;26.00;18.27;;;6.80;99.90;;;;;;5070640;28;20170;-76
2022/11/26 17:06:17;;;;;;;29.92;21.83;;;6.80;99.90;;;;;;5070132;28;20201;-76
2022/11/26 17:08:43;;;;;;;30.38;17.90;;;6.70;99.90;;;;;;5069168;28;20684;-76
2022/11/26 17:11:14;;;;;;;26.23;17.75;;;6.70;99.90;;;;;;5070700;28;20169;-76
2022/11/26 17:13:40;;;;;;;22.50;17.50;;;6.60;99.90;;;;;;5069609;28;20181;-76
2022/11/26 17:16:13;;;;;;;30.60;24.75;;;6.60;99.90;;;;;;5069645;28;20181;-76
2022/11/26 17:18:39;;;;;;;21.70;16.20;;;6.60;99.90;;;;;;5068906;28;20676;-76
2022/11/26 17:21:05;;;;;;;21.30;15.25;;;6.60;99.90;;;;;;5070035;28;20210;-76
2022/11/26 17:23:31;;;;;;;26.90;17.55;;;6.70;99.90;;;;;;5069107;28;20228;-76
2022/11/26 17:25:57;;;;;;;24.20;16.63;;;6.60;99.90;;;;;;5068875;28;20174;-76
2022/11/26 17:28:23;;;;;;;25.10;17.15;;;6.50;99.90;;;;;;5068717;28;20216;-76
2022/11/26 17:30:49;;;;;;;20.38;15.98;;;6.50;99.90;;;;;;5068697;28;20232;-76
2022/11/26 17:33:15;;;;;;;21.58;16.98;;;6.40;99.90;;;;;;5069947;28;20260;-76
2022/11/26 17:35:40;;;;;;;33.97;26.17;;;6.30;99.90;;;;;;5068583;28;20282;-76
2022/11/26 17:38:15;;;;;;;37.67;28.80;;;6.30;99.90;;;;;;5068756;28;20202;-76
2022/11/26 17:40:41;;;;;;;34.75;25.65;;;6.30;99.90;;;;;;5069095;28;20208;-76
2022/11/26 17:43:06;;;;;;;31.85;23.65;;;6.20;99.90;;;;;;5059302;28;20193;-76
2022/11/26 17:45:32;;;;;;;32.70;22.77;;;6.10;99.90;;;;;;5055368;28;20645;-76
2022/11/26 17:47:58;;;;;;;28.85;21.42;;;6.10;99.90;;;;;;5055069;28;20194;-76
2022/11/26 17:50:26;;;;;;;23.60;18.80;;;6.00;99.90;;;;;;5055240;28;20189;-76
2022/11/26 17:52:53;;;;;;;28.45;18.95;;;5.90;99.90;;;;;;5055290;28;20192;-76
2022/11/26 17:55:20;;;;;;;20.83;17.80;;;5.80;99.90;;;;;;5054769;28;20178;-76
2022/11/26 17:57:45;;;;;;;24.52;16.35;;;5.70;99.90;;;;;;5055633;28;20205;-76
2022/11/26 18:00:15;;;;;;;21.60;16.33;;;5.60;99.90;;;;;;5056076;28;20588;-76
2022/11/26 18:02:42;;;;;;;26.77;16.13;;;5.60;99.90;;;;;;5054805;28;20658;-76
2022/11/26 18:05:08;;;;;;;22.42;15.85;;;5.60;99.90;;;;;;5055701;28;20182;-76
2022/11/26 18:07:35;;;;;;;22.92;16.23;;;5.60;99.90;;;;;;5055825;28;20280;-76
2022/11/26 18:10:00;;;;;;;21.17;15.48;;;5.50;99.90;;;;;;5054850;28;20181;-76
2022/11/26 18:12:27;;;;;;;21.55;14.68;;;5.50;99.90;;;;;;5055346;28;20174;-76
2022/11/26 18:14:53;;;;;;;22.67;15.57;;;5.50;99.90;;;;;;5054475;28;20174;-76
2022/11/26 18:17:19;;;;;;;26.23;16.63;;;5.60;99.90;;;;;;5054419;28;20280;-76
2022/11/26 18:19:45;;;;;;;22.33;14.75;;;5.60;99.90;;;;;;5055783;28;20267;-76
2022/11/26 18:22:14;;;;;;;19.35;13.40;;;5.70;99.90;;;;;;5054702;28;20209;-76
2022/11/26 18:24:40;;;;;;;17.42;12.68;;;5.80;99.90;;;;;;5054384;28;20178;-76
2022/11/26 18:27:05;;;;;;;22.50;13.52;;;5.80;99.90;;;;;;5054519;28;20170;-76
2022/11/26 18:29:31;;;;;;;20.20;13.90;;;5.90;99.90;;;;;;5054267;28;20178;-76
2022/11/26 18:31:56;;;;;;;20.75;12.88;;;6.00;99.90;;;;;;5055748;28;20213;-76
2022/11/26 18:34:22;;;;;;;19.55;12.70;;;6.00;99.90;;;;;;5054103;28;20204;-76
2022/11/26 18:36:48;;;;;;;24.27;12.85;;;6.00;99.90;;;;;;5054135;28;20197;-76
2022/11/26 18:39:14;;;;;;;15.80;12.15;;;6.00;99.90;;;;;;5055415;28;20202;-76
2022/11/26 18:41:40;;;;;;;20.33;12.57;;;6.10;99.90;;;;;;5054162;28;20665;-76
2022/11/26 18:44:06;;;;;;;21.58;12.23;;;6.10;99.90;;;;;;5053978;28;20181;-76
2022/11/26 18:46:32;;;;;;;18.35;12.43;;;6.10;99.90;;;;;;5055143;28;20174;-76
2022/11/26 18:48:58;;;;;;;20.77;12.43;;;6.00;99.90;;;;;;5053813;28;20613;-76
2022/11/26 18:51:24;;;;;;;20.23;13.23;;;6.00;99.90;;;;;;5054048;28;20186;-76
2022/11/26 18:53:49;;;;;;;20.52;12.38;;;5.90;99.90;;;;;;5052876;28;20204;-76
2022/11/26 18:56:17;;;;;;;20.45;12.77;;;5.80;99.90;;;;;;5054551;28;20174;-76
2022/11/26 18:58:43;;;;;;;24.52;13.32;;;5.70;99.90;;;;;;5054779;28;20225;-76
2022/11/26 19:01:21;;;;;;;21.17;12.98;;;5.60;99.90;;;;;;5053612;28;20202;-76
2022/11/26 19:03:46;;;;;;;21.70;12.50;;;5.70;99.90;;;;;;5054513;28;20169;-76
2022/11/26 19:06:18;;;;;;;20.73;13.38;;;5.60;99.90;;;;;;5054722;28;20174;-76
2022/11/26 19:08:44;;;;;;;20.10;13.02;;;5.60;99.90;;;;;;5054537;28;20278;-76
2022/11/26 19:11:13;;;;;;;16.23;12.93;;;5.50;99.90;;;;;;5055034;28;20633;-76
2022/11/26 19:13:39;;;;;;;19.27;13.18;;;5.50;99.90;;;;;;5053488;28;20182;-76
2022/11/26 19:16:10;;;;;;;20.13;13.95;;;5.50;99.90;;;;;;5054212;28;20186;-76
2022/11/26 19:18:35;;;;;;;21.60;14.13;;;5.50;99.90;;;;;;5053566;28;20284;-76
2022/11/26 19:21:01;;;;;;;27.42;14.77;;;5.40;99.90;;;;;;5053211;28;20774;-76
2022/11/26 19:23:28;;;;;;;27.40;16.08;;;5.40;99.90;;;;;;5054033;28;20185;-76
2022/11/26 19:25:54;;;;;;;23.52;14.85;;;5.20;99.90;;;;;;5053944;28;20173;-76
2022/11/26 19:28:25;;;;;;;22.67;14.93;;;5.10;99.90;;;;;;5052982;28;20193;-76
2022/11/26 19:31:06;;;;;;;19.10;14.05;;;5.00;99.90;;;;;;5053754;28;20198;-76
2022/11/26 19:33:32;;;;;;;20.80;15.90;;;5.00;99.90;;;;;;5053288;28;20177;-76
2022/11/26 19:35:58;;;;;;;21.93;15.73;;;4.90;99.90;;;;;;5054186;28;20232;-76
2022/11/26 19:38:24;;;;;;;24.93;17.07;;;4.80;99.90;;;;;;5053226;28;20202;-76
2022/11/26 19:40:58;;;;;;;25.97;18.10;;;4.70;99.90;;;;;;5052907;28;20206;-76
2022/11/26 19:43:25;;;;;;;25.10;17.83;;;4.70;99.90;;;;;;5054434;28;20637;-76
2022/11/26 19:45:51;;;;;;;26.33;18.17;;;4.60;99.90;;;;;;5053034;28;20174;-76
2022/11/26 19:48:16;;;;;;;24.10;17.40;;;4.60;99.90;;;;;;5053285;28;20247;-76
2022/11/26 19:50:43;;;;;;;22.23;16.93;;;4.50;99.90;;;;;;5053507;28;20186;-76
2022/11/26 19:53:08;;;;;;;28.00;17.93;;;4.60;99.90;;;;;;5052769;28;20185;-76
2022/11/26 19:55:34;;;;;;;27.03;18.00;;;4.50;99.90;;;;;;5053502;28;20600;-76
2022/11/26 19:57:59;;;;;;;27.27;17.27;;;4.50;99.90;;;;;;5053406;28;20197;-77
2022/11/26 20:00:25;;;;;;;31.40;19.13;;;4.40;99.90;;;;;;5052224;28;20202;-77
2022/11/26 20:03:17;;;;;;;29.87;19.00;;;4.40;99.90;;;;;;5053210;28;20178;-77
2022/11/26 20:05:54;;;;;;;23.40;17.43;;;4.40;99.90;;;;;;5053402;28;20171;-76
2022/11/26 20:08:19;;;;;;;26.70;17.70;;;4.40;99.90;;;;;;5052359;28;20192;-77
2022/11/26 20:11:14;;;;;;;26.83;16.17;;;4.40;99.90;;;;;;5052213;28;20284;-76
2022/11/26 20:13:59;;;;;;;19.63;16.20;;;4.40;99.90;;;;;;5052234;28;20181;-76
2022/11/26 20:16:27;;;;;;;25.40;16.73;;;4.30;99.90;;;;;;5054060;28;20249;-76
2022/11/26 20:18:53;;;;;;;23.20;15.93;;;4.30;99.90;;;;;;5052137;28;20259;-76
2022/11/26 20:21:22;;;;;;;29.60;18.43;;;4.30;99.90;;;;;;5052367;28;20209;-76
2022/11/26 20:23:49;;;;;;;26.70;17.93;;;4.20;99.90;;;;;;5052115;28;20243;-76
2022/11/26 20:26:26;;;;;;;32.47;20.00;;;4.10;99.90;;;;;;5053636;28;20166;-76
2022/11/26 20:28:52;;;;;;;28.53;20.00;;;4.10;99.90;;;;;;5052476;28;20201;-77
2022/11/26 20:31:19;;;;;;;30.50;20.33;;;4.10;99.90;;;;;;5052203;28;20193;-77
2022/11/26 20:33:44;;;;;;;30.13;20.97;;;4.10;99.90;;;;;;5052050;28;20272;-77
2022/11/26 20:36:26;;;;;;;31.13;19.60;;;4.10;99.90;;;;;;5053215;28;20297;-77
2022/11/26 20:39:00;;;;;;;28.03;19.23;;;4.10;99.90;;;;;;5051945;28;20595;-77
2022/11/26 20:44:47;;;;;;;31.33;19.67;;;4.10;99.90;;;;;;5053178;28;20189;-77
2022/11/26 20:47:13;;;;;;;29.70;18.63;;;4.10;99.90;;;;;;5052184;28;20194;-77
2022/11/26 20:49:38;;;;;;;28.07;17.73;;;4.20;99.90;;;;;;5053101;28;20174;-77
2022/11/26 20:52:07;;;;;;;32.43;18.47;;;4.20;99.90;;;;;;5052670;28;20217;-77
2022/11/26 20:55:27;;;;;;;25.97;17.67;;;4.10;99.90;;;;;;5052975;28;20253;-77
2022/11/26 20:58:23;;;;;;;28.17;18.47;;;4.00;99.90;;;;;;5052594;28;20264;-77
2022/11/26 21:01:36;;;;;;;28.77;17.03;;;3.90;99.90;;;;;;5053280;28;20197;-77
2022/11/26 21:04:02;;;;;;;25.93;17.67;;;3.90;99.90;;;;;;5052093;28;20178;-77
2022/11/26 21:06:47;;;;;;;25.27;17.53;;;3.90;99.90;;;;;;5053254;28;20171;-77
2022/11/26 21:09:13;;;;;;;24.97;17.00;;;3.80;99.90;;;;;;5052463;28;20324;-77
2022/11/26 21:12:14;;;;;;;23.90;15.33;;;3.80;99.90;;;;;;5052018;28;20178;-77
2022/11/26 21:18:02;;;;;;;30.27;18.17;;;3.90;99.90;;;;;;5054706;28;20232;-77
2022/11/26 21:20:27;;;;;;;26.53;17.43;;;3.90;99.90;;;;;;5056212;28;20206;-77
2022/11/26 21:22:58;;;;;;;24.13;16.60;;;3.90;99.90;;;;;;5055600;28;20181;-76
2022/11/26 21:25:23;;;;;;;24.57;16.17;;;4.00;99.90;;;;;;5055779;28;20167;-76
2022/11/26 21:28:04;;;;;;;31.27;22.37;;;4.00;99.90;;;;;;5055462;28;20202;-76
2022/11/26 21:30:30;;;;;;;30.67;20.37;;;4.00;99.90;;;;;;5055218;28;20201;-76
2022/11/26 21:33:44;;;;;;;26.17;19.90;;;4.00;99.90;;;;;;5055194;28;20269;-76
2022/11/26 21:36:41;;;;;;;46.27;29.37;;;4.10;99.90;;;;;;5056352;28;20207;-76
2022/11/26 21:39:12;;;;;;;40.27;26.90;;;4.10;99.90;;;;;;5056263;28;20202;-76
2022/11/26 21:41:38;;;;;;;39.43;25.63;;;4.20;99.90;;;;;;5056193;28;20221;-76
2022/11/26 21:44:03;;;;;;;34.70;22.67;;;4.20;99.90;;;;;;5055315;28;20542;-76
2022/11/26 21:46:43;;;;;;;53.37;32.10;;;4.10;99.90;;;;;;5055407;28;20182;-76
2022/11/26 21:49:36;;;;;;;49.67;30.97;;;4.00;99.90;;;;;;5054717;28;20194;-76
2022/11/26 21:52:01;;;;;;;38.27;24.37;;;4.10;99.90;;;;;;5054788;28;20177;-76
2022/11/26 21:54:27;;;;;;;33.87;22.17;;;4.10;99.90;;;;;;5055230;28;20178;-77
2022/11/26 21:56:58;;;;;;;37.07;25.57;;;4.00;99.90;;;;;;5056681;28;20174;-77
2022/11/26 21:59:24;;;;;;;30.70;19.57;;;3.90;99.90;;;;;;5055088;28;20185;-77
2022/11/26 22:01:49;;;;;;;82.93;49.63;;;4.10;99.90;;;;;;5054870;28;20198;-77
2022/11/26 22:07:37;;;;;;;32.90;21.03;;;4.10;99.90;;;;;;5055795;28;20212;-77
2022/11/26 22:10:03;;;;;;;32.53;23.23;;;4.10;99.90;;;;;;5054745;28;20610;-77
2022/11/26 22:12:28;;;;;;;36.90;23.20;;;4.20;99.90;;;;;;5054365;28;20179;-77
2022/11/26 22:14:54;;;;;;;31.70;21.67;;;4.30;99.90;;;;;;5054586;28;20718;-77
2022/11/26 22:17:20;;;;;;;33.30;23.40;;;4.40;99.90;;;;;;5054363;28;20194;-77
2022/11/26 22:19:45;;;;;;;46.13;30.43;;;4.50;99.90;;;;;;5054316;28;20183;-77
2022/11/26 22:22:11;;;;;;;33.63;23.90;;;4.60;99.90;;;;;;5054152;28;20252;-77
2022/11/26 22:24:37;;;;;;;42.53;27.77;;;4.70;99.90;;;;;;5055362;28;20533;-77
2022/11/26 22:27:02;;;;;;;44.57;28.27;;;4.60;99.90;;;;;;5054051;28;20628;-77
2022/11/26 22:29:57;;;;;;;34.87;23.17;;;4.60;99.90;;;;;;5054039;28;20217;-77
2022/11/26 22:32:22;;;;;;;76.53;46.33;;;4.80;99.90;;;;;;5054860;28;20202;-77
2022/11/26 22:34:48;;;;;;;113.40;69.47;;;4.80;99.90;;;;;;5054056;28;20175;-77
2022/11/26 22:37:13;;;;;;;115.67;71.43;;;4.60;99.90;;;;;;5054025;28;20255;-77
2022/11/26 22:39:39;;;;;;;79.50;49.90;;;4.60;99.90;;;;;;5054238;28;20182;-77
2022/11/26 22:42:04;;;;;;;74.17;44.43;;;4.70;99.90;;;;;;5054987;28;20198;-77
2022/11/26 22:44:31;;;;;;;75.60;47.40;;;4.70;99.90;;;;;;5055906;28;20179;-77
2022/11/26 22:46:56;;;;;;;54.00;36.47;;;4.70;99.90;;;;;;5054535;28;20181;-77
2022/11/26 22:49:22;;;;;;;59.00;37.07;;;4.70;99.90;;;;;;5053715;28;20178;-77
2022/11/26 22:51:47;;;;;;;43.23;28.43;;;4.70;99.90;;;;;;5054009;28;20177;-77
2022/11/26 22:54:14;;;;;;;36.90;25.13;;;4.80;99.90;;;;;;5054042;28;20193;-77
2022/11/26 22:56:40;;;;;;;33.33;23.13;;;4.80;99.90;;;;;;5053815;28;20185;-77
2022/11/26 22:59:09;;;;;;;35.93;24.60;;;4.90;99.90;;;;;;5053779;28;20198;-77
2022/11/26 23:01:36;;;;;;;31.47;23.60;;;4.80;99.90;;;;;;5054239;28;20255;-77
2022/11/26 23:04:04;;;;;;;34.40;25.10;;;4.90;99.90;;;;;;5053765;28;20170;-77
2022/11/26 23:06:32;;;;;;;37.07;26.90;;;4.90;99.90;;;;;;5054498;28;20645;-77
2022/11/26 23:08:59;;;;;;;34.20;24.33;;;5.00;99.90;;;;;;5053264;28;20195;-77
2022/11/26 23:11:28;;;;;;;32.70;20.47;;;5.00;99.90;;;;;;5053319;28;20671;-77
2022/11/26 23:13:54;;;;;;;27.50;19.77;;;5.10;99.90;;;;;;5054287;28;20174;-77
2022/11/26 23:16:21;;;;;;;28.47;20.93;;;5.10;99.90;;;;;;5053542;28;20182;-77
2022/11/26 23:18:47;;;;;;;34.47;25.73;;;5.20;99.90;;;;;;5053082;28;20259;-77
2022/11/26 23:21:19;;;;;;;34.37;27.33;;;5.10;99.90;;;;;;5053018;28;20296;-77
2022/11/26 23:23:45;;;;;;;48.93;30.20;;;5.20;99.90;;;;;;5053195;28;20223;-77
2022/11/26 23:26:14;;;;;;;41.70;28.87;;;5.20;99.90;;;;;;5054482;28;20261;-77
2022/11/26 23:32:01;;;;;;;37.47;23.23;;;5.20;99.90;;;;;;5054227;28;20207;-77
2022/11/26 23:34:28;;;;;;;34.93;24.27;;;5.30;99.90;;;;;;5053268;28;20264;-77
2022/11/26 23:36:53;;;;;;;29.90;22.00;;;5.30;99.90;;;;;;5052734;28;20186;-77
2022/11/26 23:39:19;;;;;;;34.57;21.77;;;5.20;99.90;;;;;;5052728;28;20195;-77
2022/11/26 23:41:44;;;;;;;30.70;21.57;;;5.30;99.90;;;;;;5053633;28;20206;-77
2022/11/26 23:44:10;;;;;;;35.47;21.87;;;5.20;99.90;;;;;;5052725;28;20178;-77
2022/11/26 23:46:36;;;;;;;39.20;23.10;;;5.30;99.90;;;;;;5054241;28;20581;-77
2022/11/26 23:49:01;;;;;;;38.87;23.03;;;5.30;99.90;;;;;;5052513;28;20198;-77
2022/11/26 23:51:29;;;;;;;35.13;23.40;;;5.30;99.90;;;;;;5052812;28;20232;-77
2022/11/26 23:53:55;;;;;;;36.23;22.40;;;5.30;99.90;;;;;;5053412;28;20572;-77
2022/11/26 23:56:26;;;;;;;38.83;22.50;;;5.40;99.90;;;;;;5053996;28;20178;-77
2022/11/26 23:58:54;;;;;;;30.93;21.10;;;5.40;99.90;;;;;;5054069;28;20201;-77
